sensor_id;sensor_type;location;lat;lon;timestamp;P1;durP1;ratioP1;P2;durP2;ratioP2
40827;SDS011;26549;50.918;5.338;2024-03-22T00:00:16;25.70;;;16.23;;
40827;SDS011;26549;50.918;5.338;2024-03-22T00:02:42;26.88;;;16.27;;
40827;SDS011;26549;50.918;5.338;2024-03-22T00:05:08;28.67;;;16.38;;
40827;SDS011;26549;50.918;5.338;2024-03-22T00:07:34;28.00;;;16.05;;
40827;SDS011;26549;50.918;5.338;2024-03-22T00:09:59;29.08;;;16.27;;
40827;SDS011;26549;50.918;5.338;2024-03-22T00:12:25;24.15;;;15.70;;
40827;SDS011;26549;50.918;5.338;2024-03-22T00:14:51;26.10;;;15.88;;
40827;SDS011;26549;50.918;5.338;2024-03-22T00:17:19;28.75;;;15.75;;
40827;SDS011;26549;50.918;5.338;2024-03-22T00:19:45;27.73;;;14.70;;
40827;SDS011;26549;50.918;5.338;2024-03-22T00:22:11;25.30;;;15.30;;
40827;SDS011;26549;50.918;5.338;2024-03-22T00:24:37;25.08;;;14.73;;
40827;SDS011;26549;50.918;5.338;2024-03-22T00:27:03;23.75;;;14.40;;
40827;SDS011;26549;50.918;5.338;2024-03-22T00:29:29;26.10;;;14.80;;
40827;SDS011;26549;50.918;5.338;2024-03-22T00:31:55;22.95;;;14.85;;
40827;SDS011;26549;50.918;5.338;2024-03-22T00:34:21;27.55;;;14.73;;
40827;SDS011;26549;50.918;5.338;2024-03-22T00:36:46;28.30;;;15.95;;
40827;SDS011;26549;50.918;5.338;2024-03-22T00:39:12;26.65;;;15.43;;
40827;SDS011;26549;50.918;5.338;2024-03-22T00:41:38;28.33;;;16.75;;
40827;SDS011;26549;50.918;5.338;2024-03-22T00:44:04;23.85;;;14.85;;
40827;SDS011;26549;50.918;5.338;2024-03-22T00:46:30;22.10;;;14.73;;
40827;SDS011;26549;50.918;5.338;2024-03-22T00:48:56;24.08;;;13.75;;
40827;SDS011;26549;50.918;5.338;2024-03-22T00:51:23;26.88;;;14.50;;
40827;SDS011;26549;50.918;5.338;2024-03-22T00:53:50;27.70;;;15.07;;
40827;SDS011;26549;50.918;5.338;2024-03-22T00:56:16;21.63;;;14.38;;
40827;SDS011;26549;50.918;5.338;2024-03-22T00:58:41;25.60;;;15.55;;
40827;SDS011;26549;50.918;5.338;2024-03-22T01:01:07;27.08;;;16.23;;
40827;SDS011;26549;50.918;5.338;2024-03-22T01:03:33;24.20;;;14.63;;
40827;SDS011;26549;50.918;5.338;2024-03-22T01:05:59;28.05;;;15.10;;
40827;SDS011;26549;50.918;5.338;2024-03-22T01:08:25;26.38;;;14.50;;
40827;SDS011;26549;50.918;5.338;2024-03-22T01:10:50;24.80;;;15.90;;
40827;SDS011;26549;50.918;5.338;2024-03-22T01:13:16;21.65;;;13.38;;
40827;SDS011;26549;50.918;5.338;2024-03-22T01:15:42;22.98;;;14.45;;
40827;SDS011;26549;50.918;5.338;2024-03-22T01:18:09;23.35;;;14.40;;
40827;SDS011;26549;50.918;5.338;2024-03-22T01:20:34;30.05;;;15.68;;
40827;SDS011;26549;50.918;5.338;2024-03-22T01:23:00;24.33;;;14.52;;
40827;SDS011;26549;50.918;5.338;2024-03-22T01:25:27;28.63;;;15.10;;
40827;SDS011;26549;50.918;5.338;2024-03-22T01:27:53;25.60;;;15.20;;
40827;SDS011;26549;50.918;5.338;2024-03-22T01:30:18;26.58;;;15.80;;
40827;SDS011;26549;50.918;5.338;2024-03-22T01:32:45;25.33;;;14.00;;
40827;SDS011;26549;50.918;5.338;2024-03-22T01:35:11;24.08;;;14.68;;
40827;SDS011;26549;50.918;5.338;2024-03-22T01:37:37;29.20;;;13.52;;
40827;SDS011;26549;50.918;5.338;2024-03-22T01:40:03;25.65;;;14.98;;
40827;SDS011;26549;50.918;5.338;2024-03-22T01:42:32;25.00;;;14.93;;
40827;SDS011;26549;50.918;5.338;2024-03-22T01:44:58;24.15;;;15.60;;
40827;SDS011;26549;50.918;5.338;2024-03-22T01:47:23;28.88;;;14.85;;
40827;SDS011;26549;50.918;5.338;2024-03-22T01:49:50;26.85;;;15.80;;
40827;SDS011;26549;50.918;5.338;2024-03-22T01:52:18;29.13;;;15.95;;
40827;SDS011;26549;50.918;5.338;2024-03-22T01:54:44;30.33;;;14.68;;
40827;SDS011;26549;50.918;5.338;2024-03-22T01:57:10;27.00;;;15.48;;
40827;SDS011;26549;50.918;5.338;2024-03-22T01:59:36;28.35;;;16.15;;
40827;SDS011;26549;50.918;5.338;2024-03-22T02:02:02;24.90;;;17.05;;
40827;SDS011;26549;50.918;5.338;2024-03-22T02:04:28;23.27;;;14.50;;
40827;SDS011;26549;50.918;5.338;2024-03-22T02:06:54;26.83;;;15.55;;
40827;SDS011;26549;50.918;5.338;2024-03-22T02:09:20;29.55;;;16.77;;
40827;SDS011;26549;50.918;5.338;2024-03-22T02:11:46;26.30;;;17.08;;
40827;SDS011;26549;50.918;5.338;2024-03-22T02:14:12;25.77;;;14.82;;
40827;SDS011;26549;50.918;5.338;2024-03-22T02:16:39;30.60;;;17.25;;
40827;SDS011;26549;50.918;5.338;2024-03-22T02:19:06;32.38;;;16.83;;
40827;SDS011;26549;50.918;5.338;2024-03-22T02:21:32;28.10;;;15.77;;
40827;SDS011;26549;50.918;5.338;2024-03-22T02:23:58;25.77;;;15.15;;
40827;SDS011;26549;50.918;5.338;2024-03-22T02:26:24;25.65;;;16.25;;
40827;SDS011;26549;50.918;5.338;2024-03-22T02:28:49;28.50;;;16.15;;
40827;SDS011;26549;50.918;5.338;2024-03-22T02:31:15;24.17;;;16.67;;
40827;SDS011;26549;50.918;5.338;2024-03-22T02:33:41;28.23;;;16.50;;
40827;SDS011;26549;50.918;5.338;2024-03-22T02:36:07;22.67;;;15.95;;
40827;SDS011;26549;50.918;5.338;2024-03-22T02:38:32;24.25;;;15.48;;
40827;SDS011;26549;50.918;5.338;2024-03-22T02:40:58;20.88;;;14.30;;
40827;SDS011;26549;50.918;5.338;2024-03-22T02:43:24;26.48;;;14.57;;
40827;SDS011;26549;50.918;5.338;2024-03-22T02:45:50;20.65;;;14.80;;
40827;SDS011;26549;50.918;5.338;2024-03-22T02:48:16;30.05;;;16.30;;
40827;SDS011;26549;50.918;5.338;2024-03-22T02:50:42;23.35;;;14.85;;
40827;SDS011;26549;50.918;5.338;2024-03-22T02:53:08;24.90;;;14.60;;
40827;SDS011;26549;50.918;5.338;2024-03-22T02:55:37;23.08;;;14.20;;
40827;SDS011;26549;50.918;5.338;2024-03-22T02:58:05;24.23;;;13.88;;
40827;SDS011;26549;50.918;5.338;2024-03-22T03:00:32;24.15;;;13.43;;
40827;SDS011;26549;50.918;5.338;2024-03-22T03:03:06;20.20;;;13.43;;
40827;SDS011;26549;50.918;5.338;2024-03-22T03:05:32;21.83;;;13.27;;
40827;SDS011;26549;50.918;5.338;2024-03-22T03:07:58;25.70;;;13.95;;
40827;SDS011;26549;50.918;5.338;2024-03-22T03:10:24;22.88;;;14.05;;
40827;SDS011;26549;50.918;5.338;2024-03-22T03:12:50;21.88;;;14.13;;
40827;SDS011;26549;50.918;5.338;2024-03-22T03:15:16;25.17;;;13.63;;
40827;SDS011;26549;50.918;5.338;2024-03-22T03:17:42;24.00;;;14.55;;
40827;SDS011;26549;50.918;5.338;2024-03-22T03:20:08;24.08;;;15.13;;
40827;SDS011;26549;50.918;5.338;2024-03-22T03:22:35;24.77;;;13.55;;
40827;SDS011;26549;50.918;5.338;2024-03-22T03:25:03;26.83;;;14.93;;
40827;SDS011;26549;50.918;5.338;2024-03-22T03:27:29;24.23;;;14.05;;
40827;SDS011;26549;50.918;5.338;2024-03-22T03:29:55;21.17;;;13.65;;
40827;SDS011;26549;50.918;5.338;2024-03-22T03:32:21;18.85;;;12.30;;
40827;SDS011;26549;50.918;5.338;2024-03-22T03:34:47;22.45;;;13.93;;
40827;SDS011;26549;50.918;5.338;2024-03-22T03:37:12;21.77;;;13.75;;
40827;SDS011;26549;50.918;5.338;2024-03-22T03:39:39;24.02;;;15.50;;
40827;SDS011;26549;50.918;5.338;2024-03-22T03:42:05;22.23;;;13.18;;
40827;SDS011;26549;50.918;5.338;2024-03-22T03:44:33;25.52;;;15.93;;
40827;SDS011;26549;50.918;5.338;2024-03-22T03:47:00;24.35;;;13.32;;
40827;SDS011;26549;50.918;5.338;2024-03-22T03:49:26;24.02;;;13.65;;
40827;SDS011;26549;50.918;5.338;2024-03-22T03:51:52;22.80;;;13.45;;
40827;SDS011;26549;50.918;5.338;2024-03-22T03:54:18;20.33;;;12.55;;
40827;SDS011;26549;50.918;5.338;2024-03-22T03:56:43;20.67;;;12.20;;
40827;SDS011;26549;50.918;5.338;2024-03-22T03:59:09;19.50;;;12.60;;
40827;SDS011;26549;50.918;5.338;2024-03-22T04:01:35;21.75;;;12.38;;
40827;SDS011;26549;50.918;5.338;2024-03-22T04:04:02;19.35;;;12.18;;
40827;SDS011;26549;50.918;5.338;2024-03-22T04:06:28;22.35;;;13.55;;
40827;SDS011;26549;50.918;5.338;2024-03-22T04:08:53;18.35;;;13.00;;
40827;SDS011;26549;50.918;5.338;2024-03-22T04:11:19;22.92;;;13.27;;
40827;SDS011;26549;50.918;5.338;2024-03-22T04:13:45;20.77;;;12.68;;
40827;SDS011;26549;50.918;5.338;2024-03-22T04:16:11;20.08;;;12.10;;
40827;SDS011;26549;50.918;5.338;2024-03-22T04:18:36;22.88;;;13.02;;
40827;SDS011;26549;50.918;5.338;2024-03-22T04:21:02;19.27;;;12.38;;
40827;SDS011;26549;50.918;5.338;2024-03-22T04:23:28;23.05;;;12.18;;
40827;SDS011;26549;50.918;5.338;2024-03-22T04:25:57;22.52;;;13.13;;
40827;SDS011;26549;50.918;5.338;2024-03-22T04:28:25;20.77;;;12.48;;
40827;SDS011;26549;50.918;5.338;2024-03-22T04:30:58;19.58;;;12.93;;
40827;SDS011;26549;50.918;5.338;2024-03-22T04:33:26;21.40;;;12.20;;
40827;SDS011;26549;50.918;5.338;2024-03-22T04:35:55;21.75;;;11.90;;
40827;SDS011;26549;50.918;5.338;2024-03-22T04:38:21;22.98;;;11.80;;
40827;SDS011;26549;50.918;5.338;2024-03-22T04:40:50;21.70;;;11.48;;
40827;SDS011;26549;50.918;5.338;2024-03-22T04:43:16;16.95;;;10.38;;
40827;SDS011;26549;50.918;5.338;2024-03-22T04:45:45;23.63;;;11.18;;
40827;SDS011;26549;50.918;5.338;2024-03-22T04:48:17;18.92;;;12.65;;
40827;SDS011;26549;50.918;5.338;2024-03-22T04:50:47;19.25;;;10.75;;
40827;SDS011;26549;50.918;5.338;2024-03-22T04:53:15;18.75;;;11.85;;
40827;SDS011;26549;50.918;5.338;2024-03-22T04:55:45;24.42;;;12.07;;
40827;SDS011;26549;50.918;5.338;2024-03-22T04:58:16;18.67;;;11.77;;
40827;SDS011;26549;50.918;5.338;2024-03-22T05:00:44;18.95;;;10.50;;
40827;SDS011;26549;50.918;5.338;2024-03-22T05:03:10;17.73;;;10.75;;
40827;SDS011;26549;50.918;5.338;2024-03-22T05:05:36;21.77;;;10.25;;
40827;SDS011;26549;50.918;5.338;2024-03-22T05:08:03;21.88;;;11.00;;
40827;SDS011;26549;50.918;5.338;2024-03-22T05:10:29;15.02;;;9.20;;
40827;SDS011;26549;50.918;5.338;2024-03-22T05:12:55;18.92;;;11.82;;
40827;SDS011;26549;50.918;5.338;2024-03-22T05:15:21;16.95;;;10.55;;
40827;SDS011;26549;50.918;5.338;2024-03-22T05:17:48;18.70;;;10.38;;
40827;SDS011;26549;50.918;5.338;2024-03-22T05:20:14;21.23;;;10.65;;
40827;SDS011;26549;50.918;5.338;2024-03-22T05:22:41;15.98;;;11.18;;
40827;SDS011;26549;50.918;5.338;2024-03-22T05:25:07;23.25;;;11.90;;
40827;SDS011;26549;50.918;5.338;2024-03-22T05:27:33;16.10;;;10.68;;
40827;SDS011;26549;50.918;5.338;2024-03-22T05:29:59;20.90;;;11.70;;
40827;SDS011;26549;50.918;5.338;2024-03-22T05:32:25;17.13;;;9.68;;
40827;SDS011;26549;50.918;5.338;2024-03-22T05:34:52;24.00;;;12.00;;
40827;SDS011;26549;50.918;5.338;2024-03-22T05:37:18;17.30;;;11.30;;
40827;SDS011;26549;50.918;5.338;2024-03-22T05:39:44;22.63;;;10.85;;
40827;SDS011;26549;50.918;5.338;2024-03-22T05:42:10;16.55;;;11.25;;
40827;SDS011;26549;50.918;5.338;2024-03-22T05:44:36;16.65;;;11.10;;
40827;SDS011;26549;50.918;5.338;2024-03-22T05:47:03;16.92;;;11.73;;
40827;SDS011;26549;50.918;5.338;2024-03-22T05:49:29;19.92;;;12.60;;
40827;SDS011;26549;50.918;5.338;2024-03-22T05:51:55;21.00;;;11.43;;
40827;SDS011;26549;50.918;5.338;2024-03-22T05:54:20;17.75;;;11.13;;
40827;SDS011;26549;50.918;5.338;2024-03-22T05:56:46;18.75;;;11.48;;
40827;SDS011;26549;50.918;5.338;2024-03-22T05:59:12;19.75;;;12.13;;
40827;SDS011;26549;50.918;5.338;2024-03-22T06:01:38;20.02;;;10.52;;
40827;SDS011;26549;50.918;5.338;2024-03-22T06:04:06;18.23;;;11.55;;
40827;SDS011;26549;50.918;5.338;2024-03-22T06:06:34;19.13;;;12.48;;
40827;SDS011;26549;50.918;5.338;2024-03-22T06:09:00;17.40;;;12.05;;
40827;SDS011;26549;50.918;5.338;2024-03-22T06:11:29;19.70;;;11.45;;
40827;SDS011;26549;50.918;5.338;2024-03-22T06:13:55;18.65;;;12.45;;
40827;SDS011;26549;50.918;5.338;2024-03-22T06:16:28;20.17;;;12.15;;
40827;SDS011;26549;50.918;5.338;2024-03-22T06:18:57;19.92;;;12.55;;
40827;SDS011;26549;50.918;5.338;2024-03-22T06:21:23;18.52;;;12.02;;
40827;SDS011;26549;50.918;5.338;2024-03-22T06:23:51;17.20;;;10.95;;
40827;SDS011;26549;50.918;5.338;2024-03-22T06:26:17;21.40;;;11.68;;
40827;SDS011;26549;50.918;5.338;2024-03-22T06:28:43;20.02;;;12.15;;
40827;SDS011;26549;50.918;5.338;2024-03-22T06:31:17;21.83;;;12.75;;
40827;SDS011;26549;50.918;5.338;2024-03-22T06:33:43;19.88;;;12.07;;
40827;SDS011;26549;50.918;5.338;2024-03-22T06:36:09;17.52;;;10.90;;
40827;SDS011;26549;50.918;5.338;2024-03-22T06:38:37;17.85;;;11.60;;
40827;SDS011;26549;50.918;5.338;2024-03-22T06:41:03;18.92;;;11.23;;
40827;SDS011;26549;50.918;5.338;2024-03-22T06:43:31;19.13;;;11.77;;
40827;SDS011;26549;50.918;5.338;2024-03-22T06:45:58;18.67;;;10.88;;
40827;SDS011;26549;50.918;5.338;2024-03-22T06:48:27;17.13;;;9.68;;
40827;SDS011;26549;50.918;5.338;2024-03-22T06:50:55;21.52;;;10.27;;
40827;SDS011;26549;50.918;5.338;2024-03-22T06:53:21;18.02;;;10.32;;
40827;SDS011;26549;50.918;5.338;2024-03-22T06:55:47;16.48;;;9.32;;
40827;SDS011;26549;50.918;5.338;2024-03-22T06:58:12;18.30;;;10.60;;
40827;SDS011;26549;50.918;5.338;2024-03-22T07:00:38;17.95;;;10.23;;
40827;SDS011;26549;50.918;5.338;2024-03-22T07:03:06;16.10;;;9.90;;
40827;SDS011;26549;50.918;5.338;2024-03-22T07:05:32;16.92;;;10.38;;
40827;SDS011;26549;50.918;5.338;2024-03-22T07:07:58;13.38;;;9.35;;
40827;SDS011;26549;50.918;5.338;2024-03-22T07:10:24;16.00;;;9.80;;
40827;SDS011;26549;50.918;5.338;2024-03-22T07:12:53;17.58;;;10.23;;
40827;SDS011;26549;50.918;5.338;2024-03-22T07:15:20;13.95;;;8.80;;
40827;SDS011;26549;50.918;5.338;2024-03-22T07:17:48;15.20;;;9.45;;
40827;SDS011;26549;50.918;5.338;2024-03-22T07:20:13;15.25;;;10.85;;
40827;SDS011;26549;50.918;5.338;2024-03-22T07:22:39;16.17;;;9.65;;
40827;SDS011;26549;50.918;5.338;2024-03-22T07:25:06;17.20;;;10.05;;
40827;SDS011;26549;50.918;5.338;2024-03-22T07:27:44;20.48;;;12.30;;
40827;SDS011;26549;50.918;5.338;2024-03-22T07:30:24;18.08;;;10.70;;
40827;SDS011;26549;50.918;5.338;2024-03-22T07:32:50;18.02;;;10.40;;
40827;SDS011;26549;50.918;5.338;2024-03-22T07:35:18;20.05;;;10.63;;
40827;SDS011;26549;50.918;5.338;2024-03-22T07:37:54;16.77;;;10.27;;
40827;SDS011;26549;50.918;5.338;2024-03-22T07:40:19;17.63;;;11.23;;
40827;SDS011;26549;50.918;5.338;2024-03-22T07:42:48;20.92;;;11.00;;
40827;SDS011;26549;50.918;5.338;2024-03-22T07:45:13;16.40;;;10.38;;
40827;SDS011;26549;50.918;5.338;2024-03-22T07:47:39;16.15;;;10.52;;
40827;SDS011;26549;50.918;5.338;2024-03-22T07:50:25;16.02;;;9.43;;
40827;SDS011;26549;50.918;5.338;2024-03-22T07:52:55;16.17;;;10.45;;
40827;SDS011;26549;50.918;5.338;2024-03-22T07:55:22;18.92;;;9.40;;
40827;SDS011;26549;50.918;5.338;2024-03-22T07:57:48;16.02;;;10.25;;
40827;SDS011;26549;50.918;5.338;2024-03-22T08:00:16;19.38;;;11.02;;
40827;SDS011;26549;50.918;5.338;2024-03-22T08:02:54;17.30;;;10.60;;
40827;SDS011;26549;50.918;5.338;2024-03-22T08:05:25;21.67;;;10.55;;
40827;SDS011;26549;50.918;5.338;2024-03-22T08:08:01;18.55;;;9.35;;
40827;SDS011;26549;50.918;5.338;2024-03-22T08:10:29;15.85;;;10.57;;
40827;SDS011;26549;50.918;5.338;2024-03-22T08:12:55;19.02;;;10.57;;
40827;SDS011;26549;50.918;5.338;2024-03-22T08:15:21;17.63;;;10.15;;
40827;SDS011;26549;50.918;5.338;2024-03-22T08:17:46;18.98;;;9.65;;
40827;SDS011;26549;50.918;5.338;2024-03-22T08:20:15;17.73;;;10.88;;
40827;SDS011;26549;50.918;5.338;2024-03-22T08:22:41;15.52;;;10.38;;
40827;SDS011;26549;50.918;5.338;2024-03-22T08:25:07;19.02;;;10.40;;
40827;SDS011;26549;50.918;5.338;2024-03-22T08:27:40;14.77;;;9.52;;
40827;SDS011;26549;50.918;5.338;2024-03-22T08:30:11;17.35;;;9.80;;
40827;SDS011;26549;50.918;5.338;2024-03-22T08:32:38;14.63;;;9.38;;
40827;SDS011;26549;50.918;5.338;2024-03-22T08:35:11;13.93;;;8.80;;
40827;SDS011;26549;50.918;5.338;2024-03-22T08:37:37;20.48;;;10.65;;
40827;SDS011;26549;50.918;5.338;2024-03-22T08:40:18;14.50;;;8.10;;
40827;SDS011;26549;50.918;5.338;2024-03-22T08:42:54;17.90;;;8.73;;
40827;SDS011;26549;50.918;5.338;2024-03-22T08:45:23;12.23;;;7.80;;
40827;SDS011;26549;50.918;5.338;2024-03-22T08:47:51;13.43;;;8.90;;
40827;SDS011;26549;50.918;5.338;2024-03-22T08:50:18;12.65;;;8.45;;
40827;SDS011;26549;50.918;5.338;2024-03-22T08:52:51;13.13;;;9.38;;
40827;SDS011;26549;50.918;5.338;2024-03-22T08:55:22;11.68;;;8.10;;
40827;SDS011;26549;50.918;5.338;2024-03-22T08:57:52;10.07;;;7.88;;
40827;SDS011;26549;50.918;5.338;2024-03-22T09:00:18;12.95;;;7.15;;
40827;SDS011;26549;50.918;5.338;2024-03-22T09:02:52;11.15;;;6.85;;
40827;SDS011;26549;50.918;5.338;2024-03-22T09:05:20;10.95;;;6.53;;
40827;SDS011;26549;50.918;5.338;2024-03-22T09:07:49;8.20;;;6.25;;
40827;SDS011;26549;50.918;5.338;2024-03-22T09:10:24;11.80;;;7.15;;
40827;SDS011;26549;50.918;5.338;2024-03-22T09:13:02;11.32;;;7.45;;
40827;SDS011;26549;50.918;5.338;2024-03-22T09:15:28;11.43;;;7.00;;
40827;SDS011;26549;50.918;5.338;2024-03-22T09:18:00;8.45;;;6.53;;
40827;SDS011;26549;50.918;5.338;2024-03-22T09:20:30;9.55;;;6.35;;
40827;SDS011;26549;50.918;5.338;2024-03-22T09:22:57;9.13;;;6.22;;
40827;SDS011;26549;50.918;5.338;2024-03-22T09:25:26;11.15;;;7.32;;
40827;SDS011;26549;50.918;5.338;2024-03-22T09:27:58;10.23;;;7.45;;
40827;SDS011;26549;50.918;5.338;2024-03-22T09:30:29;8.43;;;5.80;;
40827;SDS011;26549;50.918;5.338;2024-03-22T09:33:00;10.10;;;6.88;;
40827;SDS011;26549;50.918;5.338;2024-03-22T09:35:29;8.55;;;6.22;;
40827;SDS011;26549;50.918;5.338;2024-03-22T09:37:57;8.10;;;6.18;;
40827;SDS011;26549;50.918;5.338;2024-03-22T09:40:23;10.07;;;6.57;;
40827;SDS011;26549;50.918;5.338;2024-03-22T09:42:49;7.78;;;5.85;;
40827;SDS011;26549;50.918;5.338;2024-03-22T09:45:18;8.45;;;5.68;;
40827;SDS011;26549;50.918;5.338;2024-03-22T09:47:47;7.95;;;5.90;;
40827;SDS011;26549;50.918;5.338;2024-03-22T09:50:22;10.85;;;7.18;;
40827;SDS011;26549;50.918;5.338;2024-03-22T09:52:49;10.82;;;6.95;;
40827;SDS011;26549;50.918;5.338;2024-03-22T09:55:20;10.15;;;6.10;;
40827;SDS011;26549;50.918;5.338;2024-03-22T09:57:51;8.30;;;6.50;;
40827;SDS011;26549;50.918;5.338;2024-03-22T10:00:19;10.55;;;7.13;;
40827;SDS011;26549;50.918;5.338;2024-03-22T10:02:56;10.63;;;6.90;;
40827;SDS011;26549;50.918;5.338;2024-03-22T10:05:23;8.93;;;5.72;;
40827;SDS011;26549;50.918;5.338;2024-03-22T10:08:20;9.82;;;6.90;;
40827;SDS011;26549;50.918;5.338;2024-03-22T10:10:52;11.07;;;6.88;;
40827;SDS011;26549;50.918;5.338;2024-03-22T10:13:20;11.20;;;7.20;;
40827;SDS011;26549;50.918;5.338;2024-03-22T10:15:49;14.48;;;8.65;;
40827;SDS011;26549;50.918;5.338;2024-03-22T10:18:18;9.40;;;7.00;;
40827;SDS011;26549;50.918;5.338;2024-03-22T10:20:58;12.30;;;6.95;;
40827;SDS011;26549;50.918;5.338;2024-03-22T10:23:31;12.30;;;7.05;;
40827;SDS011;26549;50.918;5.338;2024-03-22T10:25:59;11.25;;;6.90;;
40827;SDS011;26549;50.918;5.338;2024-03-22T10:28:26;9.40;;;6.28;;
40827;SDS011;26549;50.918;5.338;2024-03-22T10:30:52;10.27;;;6.85;;
40827;SDS011;26549;50.918;5.338;2024-03-22T10:33:18;9.85;;;6.50;;
40827;SDS011;26549;50.918;5.338;2024-03-22T10:35:45;13.05;;;6.60;;
40827;SDS011;26549;50.918;5.338;2024-03-22T10:38:12;9.93;;;5.13;;
40827;SDS011;26549;50.918;5.338;2024-03-22T10:40:42;9.35;;;6.32;;
40827;SDS011;26549;50.918;5.338;2024-03-22T10:43:16;8.65;;;5.75;;
40827;SDS011;26549;50.918;5.338;2024-03-22T10:45:42;7.68;;;5.78;;
40827;SDS011;26549;50.918;5.338;2024-03-22T10:48:11;9.38;;;5.82;;
40827;SDS011;26549;50.918;5.338;2024-03-22T10:50:41;8.93;;;5.20;;
40827;SDS011;26549;50.918;5.338;2024-03-22T10:53:16;11.20;;;6.07;;
40827;SDS011;26549;50.918;5.338;2024-03-22T10:56:00;9.27;;;5.97;;
40827;SDS011;26549;50.918;5.338;2024-03-22T10:58:39;10.18;;;5.80;;
40827;SDS011;26549;50.918;5.338;2024-03-22T11:01:25;10.65;;;6.38;;
40827;SDS011;26549;50.918;5.338;2024-03-22T11:03:51;11.00;;;6.82;;
40827;SDS011;26549;50.918;5.338;2024-03-22T11:06:28;7.68;;;5.20;;
40827;SDS011;26549;50.918;5.338;2024-03-22T11:08:58;9.85;;;5.80;;
40827;SDS011;26549;50.918;5.338;2024-03-22T11:11:28;9.32;;;6.30;;
40827;SDS011;26549;50.918;5.338;2024-03-22T11:13:54;9.25;;;6.45;;
40827;SDS011;26549;50.918;5.338;2024-03-22T11:16:21;9.25;;;5.38;;
40827;SDS011;26549;50.918;5.338;2024-03-22T11:18:47;11.52;;;6.50;;
40827;SDS011;26549;50.918;5.338;2024-03-22T11:21:15;13.80;;;6.47;;
40827;SDS011;26549;50.918;5.338;2024-03-22T11:23:44;9.15;;;6.05;;
40827;SDS011;26549;50.918;5.338;2024-03-22T11:26:10;10.30;;;6.30;;
40827;SDS011;26549;50.918;5.338;2024-03-22T11:28:37;9.80;;;6.30;;
40827;SDS011;26549;50.918;5.338;2024-03-22T11:31:07;10.45;;;6.40;;
40827;SDS011;26549;50.918;5.338;2024-03-22T11:33:33;10.07;;;6.07;;
40827;SDS011;26549;50.918;5.338;2024-03-22T11:36:01;10.60;;;7.50;;
40827;SDS011;26549;50.918;5.338;2024-03-22T11:38:29;9.98;;;6.35;;
40827;SDS011;26549;50.918;5.338;2024-03-22T11:40:59;10.80;;;6.90;;
40827;SDS011;26549;50.918;5.338;2024-03-22T11:43:27;12.15;;;6.80;;
40827;SDS011;26549;50.918;5.338;2024-03-22T11:45:54;9.90;;;6.28;;
40827;SDS011;26549;50.918;5.338;2024-03-22T11:48:21;11.48;;;6.63;;
40827;SDS011;26549;50.918;5.338;2024-03-22T11:50:47;10.50;;;5.97;;
40827;SDS011;26549;50.918;5.338;2024-03-22T11:53:15;15.27;;;6.47;;
40827;SDS011;26549;50.918;5.338;2024-03-22T11:55:42;9.90;;;6.28;;
40827;SDS011;26549;50.918;5.338;2024-03-22T11:58:11;10.82;;;7.00;;
40827;SDS011;26549;50.918;5.338;2024-03-22T12:00:37;8.77;;;6.32;;
40827;SDS011;26549;50.918;5.338;2024-03-22T12:03:06;12.07;;;6.32;;
40827;SDS011;26549;50.918;5.338;2024-03-22T12:05:32;10.80;;;7.35;;
40827;SDS011;26549;50.918;5.338;2024-03-22T12:07:57;11.82;;;6.97;;
40827;SDS011;26549;50.918;5.338;2024-03-22T12:10:23;10.63;;;6.45;;
40827;SDS011;26549;50.918;5.338;2024-03-22T12:12:49;8.90;;;6.00;;
40827;SDS011;26549;50.918;5.338;2024-03-22T12:15:19;10.20;;;7.00;;
40827;SDS011;26549;50.918;5.338;2024-03-22T12:17:45;10.95;;;6.68;;
40827;SDS011;26549;50.918;5.338;2024-03-22T12:20:11;14.18;;;7.68;;
40827;SDS011;26549;50.918;5.338;2024-03-22T12:22:36;11.45;;;7.72;;
40827;SDS011;26549;50.918;5.338;2024-03-22T12:25:02;12.63;;;6.90;;
40827;SDS011;26549;50.918;5.338;2024-03-22T12:27:29;9.63;;;7.63;;
40827;SDS011;26549;50.918;5.338;2024-03-22T12:29:55;9.43;;;6.32;;
40827;SDS011;26549;50.918;5.338;2024-03-22T12:32:21;9.85;;;6.28;;
40827;SDS011;26549;50.918;5.338;2024-03-22T12:34:48;15.75;;;6.97;;
40827;SDS011;26549;50.918;5.338;2024-03-22T12:37:15;15.13;;;7.07;;
40827;SDS011;26549;50.918;5.338;2024-03-22T12:39:41;10.20;;;7.38;;
40827;SDS011;26549;50.918;5.338;2024-03-22T12:42:07;9.80;;;7.57;;
40827;SDS011;26549;50.918;5.338;2024-03-22T12:44:34;12.02;;;7.93;;
40827;SDS011;26549;50.918;5.338;2024-03-22T12:47:00;11.27;;;7.10;;
40827;SDS011;26549;50.918;5.338;2024-03-22T12:49:25;12.65;;;7.30;;
40827;SDS011;26549;50.918;5.338;2024-03-22T12:51:51;11.05;;;6.93;;
40827;SDS011;26549;50.918;5.338;2024-03-22T12:54:17;13.93;;;8.05;;
40827;SDS011;26549;50.918;5.338;2024-03-22T12:56:43;10.98;;;6.95;;
40827;SDS011;26549;50.918;5.338;2024-03-22T12:59:10;11.00;;;7.68;;
40827;SDS011;26549;50.918;5.338;2024-03-22T13:01:37;14.40;;;7.70;;
40827;SDS011;26549;50.918;5.338;2024-03-22T13:04:04;12.25;;;7.53;;
40827;SDS011;26549;50.918;5.338;2024-03-22T13:06:30;11.63;;;6.50;;
40827;SDS011;26549;50.918;5.338;2024-03-22T13:08:56;11.25;;;6.90;;
40827;SDS011;26549;50.918;5.338;2024-03-22T13:11:22;10.75;;;7.65;;
40827;SDS011;26549;50.918;5.338;2024-03-22T13:13:48;10.05;;;6.53;;
40827;SDS011;26549;50.918;5.338;2024-03-22T13:16:13;10.32;;;6.97;;
40827;SDS011;26549;50.918;5.338;2024-03-22T13:18:40;13.55;;;7.10;;
40827;SDS011;26549;50.918;5.338;2024-03-22T13:21:07;11.13;;;7.20;;
40827;SDS011;26549;50.918;5.338;2024-03-22T13:23:34;12.10;;;7.45;;
40827;SDS011;26549;50.918;5.338;2024-03-22T13:26:03;9.35;;;6.82;;
40827;SDS011;26549;50.918;5.338;2024-03-22T13:28:29;10.32;;;6.85;;
40827;SDS011;26549;50.918;5.338;2024-03-22T13:31:01;15.90;;;7.68;;
40827;SDS011;26549;50.918;5.338;2024-03-22T13:33:28;9.52;;;6.32;;
40827;SDS011;26549;50.918;5.338;2024-03-22T13:35:55;10.65;;;7.00;;
40827;SDS011;26549;50.918;5.338;2024-03-22T13:38:21;9.23;;;6.97;;
40827;SDS011;26549;50.918;5.338;2024-03-22T13:40:56;9.55;;;6.57;;
40827;SDS011;26549;50.918;5.338;2024-03-22T13:43:23;13.70;;;7.53;;
40827;SDS011;26549;50.918;5.338;2024-03-22T13:45:52;9.77;;;6.88;;
40827;SDS011;26549;50.918;5.338;2024-03-22T13:48:19;12.25;;;7.05;;
40827;SDS011;26549;50.918;5.338;2024-03-22T13:50:49;9.80;;;6.05;;
40827;SDS011;26549;50.918;5.338;2024-03-22T13:53:19;12.30;;;7.63;;
40827;SDS011;26549;50.918;5.338;2024-03-22T13:55:47;11.35;;;6.68;;
40827;SDS011;26549;50.918;5.338;2024-03-22T13:58:13;13.05;;;7.78;;
40827;SDS011;26549;50.918;5.338;2024-03-22T14:00:39;9.60;;;6.78;;
40827;SDS011;26549;50.918;5.338;2024-03-22T14:03:05;11.80;;;7.65;;
40827;SDS011;26549;50.918;5.338;2024-03-22T14:05:31;9.45;;;7.38;;
40827;SDS011;26549;50.918;5.338;2024-03-22T14:07:58;9.38;;;6.75;;
40827;SDS011;26549;50.918;5.338;2024-03-22T14:10:29;12.57;;;7.82;;
40827;SDS011;26549;50.918;5.338;2024-03-22T14:12:58;15.48;;;8.38;;
40827;SDS011;26549;50.918;5.338;2024-03-22T14:15:24;12.43;;;8.30;;
40827;SDS011;26549;50.918;5.338;2024-03-22T14:17:51;12.88;;;7.60;;
40827;SDS011;26549;50.918;5.338;2024-03-22T14:20:17;9.68;;;7.47;;
40827;SDS011;26549;50.918;5.338;2024-03-22T14:22:43;10.55;;;7.18;;
40827;SDS011;26549;50.918;5.338;2024-03-22T14:25:09;15.35;;;8.32;;
40827;SDS011;26549;50.918;5.338;2024-03-22T14:27:35;12.98;;;7.82;;
40827;SDS011;26549;50.918;5.338;2024-03-22T14:30:01;12.95;;;7.63;;